Time;durP1;ratioP1;P1;durP2;ratioP2;P2;SDS_P1;SDS_P2;PMS_P1;PMS_P2;Temp;Humidity;BMP_temperature;BMP_pressure;BME280_temperature;BME280_humidity;BME280_pressure;Samples;Min_cycle;Max_cycle;Signal;HPM_P1;HPM_P2
2022/03/14 00:00:48;;;;;;;0.75;0.75;;;;;;;0.10;78.98;99895.56;4992027;28;20082;-85
2022/03/14 00:03:17;;;;;;;0.60;0.60;;;;;;;0.11;78.72;99889.28;4992069;28;20046;-85
2022/03/14 00:05:45;;;;;;;0.75;0.75;;;;;;;0.08;78.75;99889.59;4991199;28;20166;-84
2022/03/14 00:08:13;;;;;;;0.77;0.77;;;;;;;0.10;78.73;99895.56;4992507;28;20082;-83
2022/03/14 00:10:45;;;;;;;0.70;0.70;;;;;;;0.10;78.58;99898.22;4992631;28;20737;-83
2022/03/14 00:13:16;;;;;;;0.65;0.65;;;;;;;0.08;78.77;99895.72;4992092;28;20058;-85
2022/03/14 00:15:45;;;;;;;0.70;0.70;;;;;;;0.08;78.68;99894.91;5000289;28;20060;-85
2022/03/14 00:18:13;;;;;;;0.70;0.70;;;;;;;0.06;78.69;99892.38;5012807;28;20427;-84
2022/03/14 00:20:41;;;;;;;0.70;0.70;;;;;;;0.07;78.62;99894.03;4994866;28;20069;-85
2022/03/14 00:23:09;;;;;;;0.60;0.60;;;;;;;-0.01;78.85;99886.84;4994828;28;20049;-85
2022/03/14 00:25:37;;;;;;;0.60;0.60;;;;;;;0.00;78.83;99895.69;5012960;28;20073;-85
2022/03/14 00:28:04;;;;;;;0.80;0.80;;;;;;;-0.02;78.83;99895.00;5004959;28;20500;-84
2022/03/14 00:30:31;;;;;;;0.70;0.70;;;;;;;-0.05;78.99;99893.47;4994523;28;20137;-84
2022/03/14 00:32:59;;;;;;;0.80;0.80;;;;;;;-0.05;79.04;99895.28;5012060;28;20046;-84
2022/03/14 00:35:27;;;;;;;0.70;0.70;;;;;;;-0.03;79.11;99894.13;5011894;28;20057;-86
2022/03/14 00:37:54;;;;;;;0.73;0.73;;;;;;;0.01;78.89;99888.53;5011775;28;20057;-85
2022/03/14 00:40:22;;;;;;;0.70;0.70;;;;;;;0.02;78.96;99900.81;5012319;28;20424;-84
2022/03/14 00:42:53;;;;;;;0.77;0.77;;;;;;;0.03;78.87;99892.72;5012188;28;20053;-84
2022/03/14 00:45:23;;;;;;;0.77;0.77;;;;;;;0.06;78.83;99896.88;5014859;28;20046;-85
2022/03/14 00:47:50;;;;;;;0.75;0.75;;;;;;;0.10;78.96;99900.88;5015629;28;20065;-84
2022/03/14 00:50:18;;;;;;;0.70;0.70;;;;;;;0.14;78.45;99897.75;5015850;28;20050;-85
2022/03/14 00:52:46;;;;;;;0.60;0.60;;;;;;;0.15;78.18;99899.44;4997839;28;20104;-85
2022/03/14 00:55:13;;;;;;;0.63;0.63;;;;;;;0.18;78.09;99895.63;5016134;28;20418;-84
2022/03/14 00:57:40;;;;;;;0.80;0.80;;;;;;;0.21;78.33;99895.31;5016380;28;20054;-85
2022/03/14 01:00:08;;;;;;;0.77;0.77;;;;;;;0.25;78.14;99891.34;5015755;28;20050;-84
2022/03/14 01:02:35;;;;;;;0.60;0.60;;;;;;;0.24;78.16;99895.00;5015377;28;20100;-83
2022/03/14 01:05:03;;;;;;;0.80;0.80;;;;;;;0.24;78.10;99889.69;5014930;28;20138;-84
2022/03/14 01:07:34;;;;;;;0.80;0.80;;;;;;;0.25;77.56;99891.34;5014461;28;20053;-85
2022/03/14 01:10:03;;;;;;;0.70;0.70;;;;;;;0.24;77.73;99892.34;5014755;28;20045;-85
2022/03/14 01:12:30;;;;;;;0.70;0.70;;;;;;;0.25;77.93;99878.06;5015377;28;20054;-84
2022/03/14 01:14:57;;;;;;;0.80;0.80;;;;;;;0.27;77.87;99888.53;5021660;28;20116;-84
2022/03/14 01:17:25;;;;;;;0.65;0.65;;;;;;;0.26;77.93;99886.88;5027448;28;20061;-84
2022/03/14 01:19:53;;;;;;;0.52;0.52;;;;;;;0.29;77.71;99887.41;5015550;28;20060;-84
2022/03/14 01:22:20;;;;;;;0.70;0.70;;;;;;;0.29;77.76;99876.78;5015528;28;20053;-84
2022/03/14 01:24:48;;;;;;;0.80;0.80;;;;;;;0.36;77.54;99883.13;4997822;28;20049;-85
2022/03/14 01:27:15;;;;;;;0.80;0.80;;;;;;;0.35;77.54;99881.44;4997924;28;20053;-85
2022/03/14 01:29:42;;;;;;;0.75;0.75;;;;;;;0.35;77.52;99876.13;5015143;28;20069;-84
2022/03/14 01:32:10;;;;;;;0.80;0.80;;;;;;;0.36;77.39;99875.16;4997946;28;20069;-84
2022/03/14 01:34:37;;;;;;;0.68;0.68;;;;;;;0.32;77.32;99884.41;5014817;28;20508;-84
2022/03/14 01:37:04;;;;;;;0.75;0.75;;;;;;;0.27;77.54;99881.41;5015044;28;20477;-84
2022/03/14 01:39:31;;;;;;;0.70;0.70;;;;;;;0.32;77.47;99876.47;5015363;28;20085;-85
2022/03/14 01:41:59;;;;;;;0.80;0.80;;;;;;;0.33;77.52;99883.44;4996862;28;20082;-84
2022/03/14 01:44:27;;;;;;;0.70;0.70;;;;;;;0.31;77.63;99880.13;4997312;28;20042;-83
2022/03/14 01:46:55;;;;;;;0.70;0.70;;;;;;;0.34;77.61;99869.16;5002799;28;20050;-83
2022/03/14 01:49:22;;;;;;;0.70;0.70;;;;;;;0.31;77.46;99880.13;5024161;28;20054;-85
2022/03/14 01:51:53;;;;;;;0.60;0.60;;;;;;;0.31;77.26;99888.06;5026712;28;20065;-86
2022/03/14 01:54:21;;;;;;;0.70;0.70;;;;;;;0.32;77.38;99881.75;5008085;28;20081;-85
2022/03/14 01:56:48;;;;;;;0.70;0.70;;;;;;;0.30;77.44;99894.34;5000267;28;20046;-85
2022/03/14 01:59:18;;;;;;;0.85;0.85;;;;;;;0.31;77.58;99896.03;5014104;28;20137;-85
2022/03/14 02:01:45;;;;;;;0.70;0.70;;;;;;;0.33;77.66;99895.88;4980647;28;20128;-83
2022/03/14 02:04:14;;;;;;;0.70;0.70;;;;;;;0.31;77.57;99887.25;4996808;28;20049;-83
2022/03/14 02:06:46;;;;;;;0.68;0.68;;;;;;;0.30;77.60;99896.19;5013980;28;20049;-85
2022/03/14 02:09:14;;;;;;;0.70;0.70;;;;;;;0.32;77.69;99892.38;5014573;28;20170;-85
2022/03/14 02:12:08;;;;;;;0.70;0.70;;;;;;;0.32;77.80;99892.38;5013909;28;20107;-85
2022/03/14 02:14:39;;;;;;;0.70;0.70;;;;;;;0.28;77.59;99891.06;5014571;28;20054;-84
2022/03/14 02:17:15;;;;;;;0.60;0.60;;;;;;;0.29;77.64;99897.19;5006470;28;20093;-84
2022/03/14 02:19:43;;;;;;;0.70;0.70;;;;;;;0.27;77.75;99892.03;5013461;28;20056;-84
2022/03/14 02:22:13;;;;;;;0.88;0.88;;;;;;;0.27;77.67;99892.03;5013673;28;20144;-84
2022/03/14 02:24:43;;;;;;;0.70;0.70;;;;;;;0.27;77.50;99892.03;5013799;28;20049;-85
2022/03/14 02:27:11;;;;;;;0.70;0.70;;;;;;;0.28;77.50;99904.34;4996394;28;20079;-83
2022/03/14 02:29:39;;;;;;;0.80;0.80;;;;;;;0.28;77.93;99895.50;5013496;28;20500;-86
2022/03/14 02:32:07;;;;;;;0.70;0.70;;;;;;;0.31;77.76;99892.56;5013241;28;20099;-85
2022/03/14 02:34:35;;;;;;;0.70;0.70;;;;;;;0.28;77.82;99893.72;5013461;28;20146;-84
2022/03/14 02:37:04;;;;;;;0.80;0.80;;;;;;;0.27;77.81;99900.00;4995718;28;20137;-84
2022/03/14 02:39:32;;;;;;;0.80;0.80;;;;;;;0.28;78.28;99903.47;5013678;28;20145;-83
2022/03/14 02:42:00;;;;;;;0.80;0.80;;;;;;;0.29;78.29;99902.50;5013069;28;20049;-84
2022/03/14 02:44:28;;;;;;;0.75;0.75;;;;;;;0.25;78.34;99901.97;5013161;28;20500;-84
2022/03/14 02:46:57;;;;;;;0.80;0.80;;;;;;;0.27;78.48;99909.78;4996284;28;20460;-83
2022/03/14 02:49:24;;;;;;;0.75;0.75;;;;;;;0.25;78.53;99917.91;5013213;28;20054;-84
2022/03/14 02:51:52;;;;;;;0.70;0.70;;;;;;;0.26;78.53;99916.91;5013606;28;20463;-85
2022/03/14 02:54:19;;;;;;;0.70;0.70;;;;;;;0.28;78.62;99917.59;5013952;28;20100;-84
2022/03/14 02:56:47;;;;;;;0.65;0.65;;;;;;;0.28;78.72;99922.91;5016763;28;20049;-86
2022/03/14 02:59:16;;;;;;;0.70;0.70;;;;;;;0.27;78.79;99913.25;5022269;28;20082;-84
2022/03/14 03:01:43;;;;;;;0.65;0.65;;;;;;;0.22;78.96;99910.25;5019730;28;20570;-85
2022/03/14 03:04:10;;;;;;;0.75;0.75;;;;;;;0.22;79.04;99919.03;4998637;28;20050;-83
2022/03/14 03:06:38;;;;;;;0.70;0.70;;;;;;;0.24;78.93;99910.94;5017067;28;20057;-85
2022/03/14 03:09:05;;;;;;;0.70;0.70;;;;;;;0.24;79.09;99921.56;5012134;28;20468;-85
2022/03/14 03:11:33;;;;;;;0.65;0.65;;;;;;;0.24;79.31;99912.75;4996048;28;20397;-84
2022/03/14 03:14:01;;;;;;;0.77;0.77;;;;;;;0.25;79.27;99907.28;5012948;28;20046;-85
2022/03/14 03:16:28;;;;;;;0.73;0.73;;;;;;;0.25;79.34;99917.91;4996252;28;20115;-85
2022/03/14 03:18:56;;;;;;;0.77;0.77;;;;;;;0.23;79.64;99911.94;5012787;28;20049;-83
2022/03/14 03:21:23;;;;;;;0.80;0.80;;;;;;;0.14;79.71;99896.94;5013235;28;20492;-84
2022/03/14 03:23:50;;;;;;;0.80;0.80;;;;;;;0.12;80.01;99913.00;4996231;28;20049;-86
2022/03/14 03:26:21;;;;;;;0.70;0.70;;;;;;;0.13;80.42;99908.53;4998045;28;20065;-88
2022/03/14 03:28:49;;;;;;;0.70;0.70;;;;;;;0.15;80.54;99911.84;5014157;28;20133;-87
2022/03/14 03:31:21;;;;;;;0.60;0.60;;;;;;;0.15;80.82;99918.03;4998698;28;20041;-88
2022/03/14 03:33:50;;;;;;;0.70;0.70;;;;;;;0.18;80.89;99919.53;4996992;28;20042;-90
2022/03/14 03:36:18;;;;;;;0.80;0.80;;;;;;;0.16;80.99;99908.22;4995687;28;20472;-83
2022/03/14 03:38:45;;;;;;;0.75;0.75;;;;;;;0.09;81.36;99909.81;4979608;28;20449;-87
2022/03/14 03:41:12;;;;;;;0.73;0.73;;;;;;;0.01;81.67;99901.81;5012954;28;20508;-83
2022/03/14 03:43:39;;;;;;;0.77;0.77;;;;;;;0.01;81.79;99909.78;5012986;28;20185;-84
2022/03/14 03:46:06;;;;;;;0.70;0.70;;;;;;;0.02;82.06;99922.03;5010146;28;20635;-84
2022/03/14 03:48:36;;;;;;;0.63;0.63;;;;;;;0.01;82.26;99920.38;4976874;28;20109;-89
2022/03/14 03:51:03;;;;;;;0.80;0.80;;;;;;;0.05;82.22;99927.03;4946179;28;20046;-89
2022/03/14 03:53:31;;;;;;;0.77;0.77;;;;;;;0.03;82.16;99921.91;4978105;28;20150;-86
2022/03/14 03:55:59;;;;;;;0.80;0.80;;;;;;;0.04;82.18;99922.72;4959918;28;20107;-85
2022/03/14 03:58:28;;;;;;;0.80;0.80;;;;;;;0.05;82.35;99927.03;4993190;28;20072;-86
2022/03/14 04:00:55;;;;;;;0.70;0.70;;;;;;;0.05;82.27;99929.69;4974742;28;20548;-87
2022/03/14 04:03:23;;;;;;;0.70;0.70;;;;;;;0.03;82.19;99918.41;4982795;28;20164;-93
2022/03/14 04:05:50;;;;;;;0.70;0.70;;;;;;;0.05;82.63;99932.34;4964320;28;20138;-87
2022/03/14 04:08:19;;;;;;;0.80;0.80;;;;;;;0.06;82.46;99932.19;4650305;28;10000518;-87
2022/03/14 04:10:54;;;;;;;0.70;0.70;;;;;;;0.05;82.69;99927.91;5013935;28;20088;-88
2022/03/14 04:13:40;;;;;;;0.80;0.80;;;;;;;0.04;82.68;99942.13;4979191;28;20361;-88
2022/03/14 04:16:10;;;;;;;0.80;0.80;;;;;;;0.07;82.87;99933.03;4993116;28;20077;-88
2022/03/14 04:18:37;;;;;;;0.75;0.75;;;;;;;0.11;82.65;99937.06;4998048;28;20074;-86
2022/03/14 04:21:04;;;;;;;0.70;0.70;;;;;;;0.16;82.94;99934.78;5005153;28;20030;-90
2022/03/14 04:23:31;;;;;;;0.70;0.70;;;;;;;0.17;82.81;99937.25;5023055;28;20508;-86
2022/03/14 04:25:58;;;;;;;0.70;0.70;;;;;;;0.12;82.72;99938.72;4999108;28;20087;-86
2022/03/14 04:28:26;;;;;;;0.75;0.75;;;;;;;0.12;82.84;99933.41;5018203;28;20056;-87
2022/03/14 04:30:53;;;;;;;0.77;0.77;;;;;;;0.17;82.89;99936.44;5017265;28;20432;-87
2022/03/14 04:33:20;;;;;;;0.68;0.68;;;;;;;0.22;82.92;99942.94;5018205;28;20585;-86
2022/03/14 04:35:48;;;;;;;0.70;0.70;;;;;;;0.25;82.79;99943.63;5018237;28;20447;-86
2022/03/14 04:38:16;;;;;;;0.60;0.60;;;;;;;0.24;82.67;99942.78;4997705;28;20429;-85
2022/03/14 04:40:45;;;;;;;0.82;0.82;;;;;;;0.22;82.81;99944.75;4997149;28;20057;-88
2022/03/14 04:43:17;;;;;;;0.80;0.80;;;;;;;0.27;82.73;99945.13;4973316;28;20101;-88
2022/03/14 04:45:44;;;;;;;0.68;0.68;;;;;;;0.32;82.64;99944.66;4992060;28;20054;-84
2022/03/14 04:48:11;;;;;;;0.80;0.80;;;;;;;0.31;82.65;99953.63;4994273;28;20069;-84
2022/03/14 04:50:42;;;;;;;0.70;0.70;;;;;;;0.28;82.94;99951.25;4994948;28;20138;-85
2022/03/14 04:53:10;;;;;;;0.68;0.68;;;;;;;0.20;82.80;99954.69;4980060;28;20053;-85
2022/03/14 04:55:37;;;;;;;0.68;0.68;;;;;;;0.18;83.00;99946.06;4997637;28;20050;-86
2022/03/14 04:58:04;;;;;;;0.70;0.70;;;;;;;0.17;83.04;99945.22;4977990;28;20057;-85
2022/03/14 05:00:33;;;;;;;0.80;0.80;;;;;;;0.26;82.96;99948.78;4996109;28;20050;-85
2022/03/14 05:03:08;;;;;;;0.70;0.70;;;;;;;0.25;83.03;99947.09;4997715;28;20073;-86
2022/03/14 05:05:59;;;;;;;0.80;0.80;;;;;;;0.26;83.12;99940.81;4978062;28;20133;-85
2022/03/14 05:08:36;;;;;;;0.80;0.80;;;;;;;0.28;83.17;99941.50;4979662;28;20062;-86
2022/03/14 05:11:04;;;;;;;0.80;0.80;;;;;;;0.36;82.97;99949.53;4980537;28;20133;-88
2022/03/14 05:13:31;;;;;;;0.73;0.73;;;;;;;0.36;83.06;99957.50;4997388;28;20496;-86
2022/03/14 05:15:58;;;;;;;0.80;0.80;;;;;;;0.38;83.43;99958.16;4997540;28;20080;-86
2022/03/14 05:18:34;;;;;;;0.70;0.70;;;;;;;0.37;83.23;99956.47;5001773;28;20685;-86
2022/03/14 05:21:02;;;;;;;0.70;0.70;;;;;;;0.42;83.28;99956.84;4965920;28;20057;-86
2022/03/14 05:23:32;;;;;;;0.70;0.70;;;;;;;0.43;83.76;99961.19;5002324;28;20077;-87
2022/03/14 05:25:59;;;;;;;0.70;0.70;;;;;;;0.43;83.72;99955.88;4975436;28;20084;-87
2022/03/14 05:28:26;;;;;;;0.73;0.73;;;;;;;0.46;83.57;99965.34;4967234;28;20061;-87
2022/03/14 05:30:54;;;;;;;0.70;0.70;;;;;;;0.48;83.68;99965.19;4964027;28;20051;-86
2022/03/14 05:33:22;;;;;;;0.80;0.80;;;;;;;0.47;83.57;99963.53;4985851;28;20050;-86
2022/03/14 05:35:50;;;;;;;0.80;0.80;;;;;;;0.51;83.45;99956.94;4978043;28;20053;-87
2022/03/14 05:38:18;;;;;;;0.70;0.70;;;;;;;0.65;83.33;99961.66;4980819;28;20063;-88
2022/03/14 05:40:46;;;;;;;0.63;0.63;;;;;;;0.73;83.28;99968.81;4966861;28;20047;-84
2022/03/14 05:43:13;;;;;;;0.70;0.70;;;;;;;0.71;83.11;99971.66;4987044;28;20488;-85
2022/03/14 05:45:41;;;;;;;0.80;0.80;;;;;;;0.68;83.07;99969.28;4991585;28;20085;-85
2022/03/14 05:48:14;;;;;;;0.80;0.80;;;;;;;0.63;83.01;99968.94;4982553;28;20077;-85
2022/03/14 05:50:41;;;;;;;0.80;0.80;;;;;;;0.58;82.86;99960.59;4943231;28;20996;-86
2022/03/14 05:53:08;;;;;;;0.70;0.70;;;;;;;0.61;82.84;99965.63;4985358;28;20085;-86
2022/03/14 05:55:35;;;;;;;0.73;0.73;;;;;;;0.60;82.55;99963.94;4986658;28;20054;-87
2022/03/14 05:58:05;;;;;;;0.70;0.70;;;;;;;0.57;82.46;99973.06;4994021;28;20444;-87
2022/03/14 06:00:33;;;;;;;0.80;0.80;;;;;;;0.61;82.79;99968.28;4987847;28;20047;-86
2022/03/14 06:03:01;;;;;;;0.80;0.80;;;;;;;0.67;82.75;99962.31;4975341;28;20140;-87
2022/03/14 06:05:28;;;;;;;0.80;0.80;;;;;;;0.71;82.52;99969.00;4991413;28;20096;-85
2022/03/14 06:07:56;;;;;;;0.80;0.80;;;;;;;0.68;82.56;99973.78;4974015;28;20113;-86
2022/03/14 06:10:24;;;;;;;0.70;0.70;;;;;;;0.59;82.60;99967.59;4994813;28;20046;-93
2022/03/14 06:12:52;;;;;;;0.70;0.70;;;;;;;0.64;82.85;99975.94;4985525;28;20145;-84
2022/03/14 06:15:19;;;;;;;0.70;0.70;;;;;;;0.69;82.92;99973.63;4984507;28;20051;-83
2022/03/14 06:17:46;;;;;;;0.77;0.77;;;;;;;0.79;82.93;99981.50;4979483;28;20053;-86
2022/03/14 06:20:15;;;;;;;0.65;0.65;;;;;;;0.85;82.82;99972.88;4975017;28;20049;-86
2022/03/14 06:22:46;;;;;;;0.70;0.70;;;;;;;0.86;82.30;99975.41;4975804;28;20046;-87
2022/03/14 06:25:17;;;;;;;0.70;0.70;;;;;;;0.80;82.28;99970.69;4996104;28;20046;-86
2022/03/14 06:27:45;;;;;;;0.77;0.77;;;;;;;0.81;82.31;99983.00;4998026;28;20054;-90
2022/03/14 06:30:13;;;;;;;0.70;0.70;;;;;;;0.74;82.16;99976.66;4999091;28;20069;-86
2022/03/14 06:32:41;;;;;;;0.75;0.75;;;;;;;0.70;82.36;99980.59;4962046;28;20424;-86
2022/03/14 06:35:10;;;;;;;0.80;0.80;;;;;;;0.69;82.49;99991.41;4968271;28;20050;-88
2022/03/14 06:37:38;;;;;;;0.70;0.70;;;;;;;0.69;82.38;99980.78;4947295;28;20513;-85
2022/03/14 06:40:05;;;;;;;0.80;0.80;;;;;;;0.78;82.46;99985.97;4957750;28;20050;-88
2022/03/14 06:42:33;;;;;;;0.80;0.80;;;;;;;0.84;81.95;99982.69;4978775;28;20074;-86
2022/03/14 06:45:01;;;;;;;0.70;0.70;;;;;;;0.91;81.10;99993.50;4985249;28;20464;-83
2022/03/14 06:47:29;;;;;;;0.80;0.80;;;;;;;0.94;80.72;99998.53;4973959;28;20051;-85
2022/03/14 06:49:56;;;;;;;0.90;0.90;;;;;;;1.18;80.16;99999.63;4953713;28;20066;-90
2022/03/14 06:52:24;;;;;;;0.80;0.80;;;;;;;1.39;78.66;99999.22;4650341;28;9999997;-89
2022/03/14 06:54:52;;;;;;;0.80;0.80;;;;;;;1.57;77.79;99996.44;4978928;28;20051;-90
2022/03/14 06:57:19;;;;;;;0.90;0.90;;;;;;;1.72;77.02;100001.00;4983462;28;20082;-88
2022/03/14 06:59:46;;;;;;;0.80;0.80;;;;;;;1.89;75.35;99998.34;4959792;28;20100;-87
2022/03/14 07:02:13;;;;;;;0.80;0.80;;;;;;;1.96;74.28;99996.69;4970992;28;20756;-87
2022/03/14 07:04:41;;;;;;;0.80;0.80;;;;;;;2.11;73.65;100002.22;4958434;28;20062;-83
2022/03/14 07:07:08;;;;;;;0.88;0.88;;;;;;;2.14;72.65;100002.69;4965400;28;20127;-87
2022/03/14 07:09:35;;;;;;;0.80;0.80;;;;;;;2.16;72.67;99995.38;4977984;28;20043;-91
2022/03/14 07:12:03;;;;;;;0.80;0.80;;;;;;;2.28;72.36;99995.03;4958869;28;20050;-83
2022/03/14 07:14:31;;;;;;;0.80;0.80;;;;;;;2.43;71.68;99998.72;4954921;28;20873;-84
2022/03/14 07:41:28;;;;;;;0.70;0.70;;;;;;;2.77;66.07;99992.34;4574680;23;10001477;-89
2022/03/14 07:43:55;;;;;;;0.60;0.60;;;;;;;2.69;65.95;99992.38;4951531;29;20257;-88
2022/03/14 07:46:23;;;;;;;0.70;0.70;;;;;;;2.56;65.15;99977.72;4938277;29;20055;-88
2022/03/14 07:48:54;;;;;;;0.73;0.73;;;;;;;2.48;64.77;99983.06;4903770;29;20138;-85
2022/03/14 07:51:22;;;;;;;0.77;0.77;;;;;;;2.66;64.52;99996.19;4918325;29;20054;-85
2022/03/14 07:53:50;;;;;;;0.70;0.70;;;;;;;2.79;64.01;99990.34;4953415;28;20117;-90
2022/03/14 07:56:21;;;;;;;0.80;0.80;;;;;;;2.83;63.84;99986.31;4920464;29;20118;-90
2022/03/14 07:58:49;;;;;;;0.80;0.80;;;;;;;2.88;64.12;99999.97;4952318;29;20043;-82
2022/03/14 08:01:20;;;;;;;0.70;0.70;;;;;;;2.82;63.68;99987.31;4953691;29;20162;-85
2022/03/14 08:03:48;;;;;;;0.80;0.80;;;;;;;2.81;64.15;99989.16;4923768;29;20047;-85
2022/03/14 08:06:22;;;;;;;0.70;0.70;;;;;;;2.84;63.69;99990.66;4952472;29;20543;-85
2022/03/14 08:08:53;;;;;;;0.70;0.70;;;;;;;2.81;63.27;99994.50;4947692;29;20472;-86
2022/03/14 08:11:30;;;;;;;0.80;0.80;;;;;;;2.74;63.47;99990.03;4958305;29;20043;-87
2022/03/14 08:13:58;;;;;;;0.80;0.80;;;;;;;2.82;62.23;99996.16;4942159;29;20066;-87
2022/03/14 08:16:25;;;;;;;0.80;0.80;;;;;;;2.79;61.58;100003.66;4958791;29;20044;-87
2022/03/14 08:18:54;;;;;;;0.80;0.80;;;;;;;2.94;60.79;99995.81;4958822;29;20047;-86
2022/03/14 08:21:21;;;;;;;0.90;0.90;;;;;;;3.16;59.72;99997.72;4943108;29;20462;-88
2022/03/14 08:23:50;;;;;;;0.80;0.80;;;;;;;3.33;59.55;99998.50;4960677;29;20066;-87
2022/03/14 08:26:22;;;;;;;0.80;0.80;;;;;;;3.46;60.13;99997.94;4942721;29;20532;-86
2022/03/14 08:29:11;;;;;;;0.80;0.80;;;;;;;3.70;59.87;99991.66;4901601;29;20052;-86
2022/03/14 08:31:39;;;;;;;0.70;0.70;;;;;;;3.74;59.88;99989.44;4935603;29;20553;-87
2022/03/14 08:34:06;;;;;;;0.80;0.80;;;;;;;3.78;59.24;99983.59;4936805;29;20162;-88
2022/03/14 08:36:36;;;;;;;0.80;0.80;;;;;;;3.97;59.24;99982.28;4938379;29;20052;-87
2022/03/14 08:39:04;;;;;;;0.80;0.80;;;;;;;4.22;58.36;99977.56;4924256;29;20064;-87
2022/03/14 08:41:32;;;;;;;0.77;0.77;;;;;;;4.45;56.72;99985.56;4919574;29;20080;-88
2022/03/14 08:43:59;;;;;;;0.80;0.80;;;;;;;4.39;56.40;99982.81;4903527;29;20115;-88
2022/03/14 08:46:26;;;;;;;0.80;0.80;;;;;;;4.72;55.36;99981.47;4902177;29;20076;-87
2022/03/14 08:48:54;;;;;;;0.70;0.70;;;;;;;4.88;55.12;99976.97;4904751;29;20053;-87
2022/03/14 08:51:48;;;;;;;0.82;0.82;;;;;;;4.89;54.39;99979.47;4890031;29;20053;-87
2022/03/14 08:54:21;;;;;;;0.70;0.70;;;;;;;5.02;52.78;99978.00;4904043;29;20125;-87
2022/03/14 08:56:54;;;;;;;0.82;0.82;;;;;;;4.60;52.92;99964.22;4871847;29;20053;-87
2022/03/14 08:59:26;;;;;;;0.80;0.80;;;;;;;4.92;53.76;99970.25;4883117;29;20045;-87
2022/03/14 09:01:53;;;;;;;0.70;0.70;;;;;;;4.90;52.55;99981.13;4900166;29;20056;-87
2022/03/14 09:04:20;;;;;;;0.80;0.80;;;;;;;4.65;53.98;99975.19;4906680;29;20048;-87
2022/03/14 09:06:48;;;;;;;0.80;0.80;;;;;;;4.70;53.32;99980.81;4883784;29;20464;-88
2022/03/14 09:09:19;;;;;;;0.70;0.70;;;;;;;4.83;52.75;99979.38;4903485;29;20060;-88
2022/03/14 09:11:48;;;;;;;0.80;0.80;;;;;;;5.04;52.50;99976.81;4904602;29;20075;-87
2022/03/14 09:14:15;;;;;;;0.80;0.80;;;;;;;5.32;50.94;99970.78;4904755;29;20497;-86
2022/03/14 09:16:42;;;;;;;0.80;0.80;;;;;;;5.80;49.22;99965.78;4902684;29;20107;-89
2022/03/14 09:19:09;;;;;;;0.80;0.80;;;;;;;5.45;50.48;99970.94;4901682;29;20048;-88
2022/03/14 09:21:36;;;;;;;0.80;0.80;;;;;;;5.45;50.05;99976.28;4904443;29;20087;-87
2022/03/14 09:24:09;;;;;;;0.80;0.80;;;;;;;5.39;50.37;99971.66;4889990;29;20083;-87
2022/03/14 09:26:38;;;;;;;0.80;0.80;;;;;;;5.42;49.39;99984.72;4887752;29;20055;-88
2022/03/14 09:29:06;;;;;;;0.80;0.80;;;;;;;5.49;48.14;99974.06;4919343;29;20055;-88
2022/03/14 09:31:38;;;;;;;0.80;0.80;;;;;;;6.45;45.66;99967.44;4918745;29;20507;-86
2022/03/14 09:34:05;;;;;;;0.80;0.80;;;;;;;5.45;45.87;99967.44;4897303;29;20146;-86
2022/03/14 09:36:33;;;;;;;0.95;0.95;;;;;;;5.94;45.01;99983.66;4892470;29;20052;-85
2022/03/14 09:39:03;;;;;;;0.70;0.70;;;;;;;6.30;44.08;99969.34;4919794;29;20044;-84
2022/03/14 09:41:32;;;;;;;0.70;0.70;;;;;;;5.84;45.36;99975.09;4916046;29;20063;-85
2022/03/14 09:44:01;;;;;;;0.80;0.80;;;;;;;6.92;43.12;99976.66;4916805;29;20676;-84
2022/03/14 09:46:28;;;;;;;0.60;0.60;;;;;;;6.22;44.74;99980.22;4912439;29;20565;-90
2022/03/14 09:48:57;;;;;;;0.80;0.80;;;;;;;5.70;45.13;99966.09;4926432;29;20417;-86
2022/03/14 09:51:25;;;;;;;0.70;0.70;;;;;;;5.82;45.59;99969.06;4596615;29;10000504;-85
2022/03/14 09:53:52;;;;;;;0.70;0.70;;;;;;;5.68;46.25;99967.28;4940760;29;20078;-86
2022/03/14 09:56:19;;;;;;;1.02;1.02;;;;;;;5.88;44.76;99962.97;4887832;29;20047;-85
2022/03/14 09:58:47;;;;;;;0.70;0.70;;;;;;;5.45;45.41;99962.09;4926442;29;20071;-82
2022/03/14 10:01:14;;;;;;;1.40;1.30;;;;;;;5.86;45.36;99968.50;4937216;29;20055;-86
2022/03/14 10:03:41;;;;;;;0.70;0.70;;;;;;;6.46;43.49;99966.41;4917174;29;20060;-83
2022/03/14 10:06:08;;;;;;;0.70;0.70;;;;;;;5.97;44.95;99961.84;4952647;29;20051;-86
2022/03/14 10:08:35;;;;;;;1.30;1.20;;;;;;;6.21;43.49;99963.31;4938741;29;20523;-85
2022/03/14 10:11:03;;;;;;;0.70;0.70;;;;;;;6.86;41.72;99960.50;4943182;29;20062;-85
2022/03/14 10:13:45;;;;;;;0.90;0.90;;;;;;;7.27;43.20;99957.03;4919783;29;20059;-85
2022/03/14 10:16:20;;;;;;;0.95;0.95;;;;;;;7.40;42.79;99967.81;4922107;29;20146;-85
2022/03/14 10:18:52;;;;;;;1.00;1.00;;;;;;;8.85;38.63;99960.16;4947722;29;20470;-85
2022/03/14 10:21:38;;;;;;;0.70;0.70;;;;;;;7.80;40.72;99960.72;4936052;29;20055;-85
2022/03/14 10:24:10;;;;;;;1.30;1.20;;;;;;;8.87;39.10;99952.69;4929048;29;20058;-83
2022/03/14 10:26:40;;;;;;;0.60;0.60;;;;;;;7.98;39.20;99954.75;4925420;29;20147;-83
2022/03/14 10:29:14;;;;;;;0.60;0.60;;;;;;;7.06;40.85;99965.97;4888362;29;20797;-84
2022/03/14 10:31:46;;;;;;;0.70;0.70;;;;;;;6.40;42.39;99956.44;4915188;29;20434;-83
2022/03/14 10:34:16;;;;;;;0.70;0.70;;;;;;;6.21;43.19;99957.13;4922627;29;20055;-85
2022/03/14 10:36:54;;;;;;;1.25;1.20;;;;;;;8.78;39.94;99959.31;4933142;29;20175;-81
2022/03/14 10:39:27;;;;;;;0.60;0.60;;;;;;;8.10;39.78;99952.28;4918844;29;20052;-84
2022/03/14 10:42:03;;;;;;;1.30;1.20;;;;;;;8.89;37.62;99946.06;4932852;29;20491;-87
2022/03/14 10:44:51;;;;;;;0.70;0.70;;;;;;;7.73;39.58;99957.19;4926118;29;20051;-85
2022/03/14 10:47:20;;;;;;;1.10;1.10;;;;;;;8.43;39.38;99952.34;4928997;29;20517;-86
2022/03/14 10:49:48;;;;;;;0.90;0.90;;;;;;;9.69;37.94;99939.53;4917347;29;20078;-86
2022/03/14 10:52:18;;;;;;;0.80;0.80;;;;;;;9.69;36.33;99953.84;4918030;29;20399;-87
2022/03/14 10:54:47;;;;;;;0.90;0.90;;;;;;;8.94;36.50;99945.44;4922399;29;20060;-83
2022/03/14 10:57:25;;;;;;;0.70;0.70;;;;;;;9.32;36.51;99942.00;4925151;29;20414;-83
2022/03/14 10:59:54;;;;;;;0.60;0.60;;;;;;;8.54;37.82;99928.53;4925195;29;20055;-85
2022/03/14 11:02:23;;;;;;;1.00;1.00;;;;;;;9.29;36.83;99935.19;4921028;29;20100;-85
2022/03/14 11:04:58;;;;;;;1.10;1.10;;;;;;;11.34;33.92;99935.63;4919834;29;20554;-84
2022/03/14 11:07:33;;;;;;;1.00;1.00;;;;;;;12.03;31.97;99939.72;4924396;29;20047;-84
2022/03/14 11:10:01;;;;;;;;;;;;;;;11.75;32.78;99931.31;4927406;29;20075;-83
2022/03/14 11:12:30;;;;;;;1.00;1.00;;;;;;;11.83;31.90;99934.56;4919780;29;20330;-85
2022/03/14 11:14:59;;;;;;;1.00;1.00;;;;;;;11.91;32.40;99941.53;4909036;29;20055;-84
2022/03/14 11:17:32;;;;;;;1.00;1.00;;;;;;;12.77;31.59;99925.78;4900086;29;20052;-82
2022/03/14 11:20:14;;;;;;;1.00;1.00;;;;;;;12.89;31.09;99931.19;4918698;29;20055;-84
2022/03/14 11:22:43;;;;;;;1.00;1.00;;;;;;;13.98;30.58;99923.09;4924456;29;20082;-85
2022/03/14 11:25:11;;;;;;;0.90;0.90;;;;;;;14.13;29.38;99925.25;4924758;29;20437;-86
2022/03/14 11:27:41;;;;;;;1.00;1.00;;;;;;;13.62;30.28;99930.56;4927442;29;20518;-85
2022/03/14 11:30:11;;;;;;;1.00;1.00;;;;;;;14.15;28.43;99928.53;4908033;29;20060;-84
2022/03/14 11:32:38;;;;;;;0.45;0.45;;;;;;;11.40;32.58;99929.31;4914921;29;20056;-82
2022/03/14 11:35:07;;;;;;;1.00;1.00;;;;;;;12.01;31.94;99938.28;4919527;29;20102;-84
2022/03/14 11:37:35;;;;;;;1.00;1.00;;;;;;;13.02;30.65;99926.34;4923676;29;20082;-83
2022/03/14 11:40:09;;;;;;;1.00;1.00;;;;;;;13.54;29.33;99925.50;4924170;29;20134;-85
2022/03/14 11:42:36;;;;;;;1.00;1.00;;;;;;;12.66;29.42;99927.44;4926098;29;20097;-84
2022/03/14 11:45:07;;;;;;;0.80;0.80;;;;;;;13.29;30.07;99923.13;4918224;29;20060;-84
2022/03/14 11:47:35;;;;;;;1.00;1.00;;;;;;;13.59;29.19;99925.59;4907946;29;20143;-84
2022/03/14 11:50:02;;;;;;;1.00;1.00;;;;;;;13.68;28.47;99917.09;4925529;29;20135;-84
2022/03/14 11:52:36;;;;;;;1.00;1.00;;;;;;;13.28;29.48;99937.75;4933558;29;20744;-84
2022/03/14 11:55:19;;;;;;;0.90;0.90;;;;;;;14.23;29.40;99941.72;4907064;29;20796;-85
2022/03/14 11:57:49;;;;;;;1.00;1.00;;;;;;;14.55;27.87;99922.13;4902200;29;20059;-84
2022/03/14 12:00:32;;;;;;;0.90;0.90;;;;;;;13.93;28.53;99930.31;4921418;29;20051;-84
2022/03/14 12:03:06;;;;;;;0.90;0.90;;;;;;;12.95;29.71;99935.66;4914572;29;20088;-84
2022/03/14 12:05:33;;;;;;;1.00;1.00;;;;;;;13.33;29.51;99927.00;4914680;29;20048;-81
2022/03/14 12:08:12;;;;;;;1.00;1.00;;;;;;;13.86;28.55;99935.88;4922817;29;20151;-83
2022/03/14 12:10:39;;;;;;;0.90;0.90;;;;;;;14.59;27.56;99931.44;4925125;29;20556;-82
2022/03/14 12:13:06;;;;;;;1.00;1.00;;;;;;;14.25;27.71;99930.59;4914633;29;20074;-84
2022/03/14 12:15:39;;;;;;;1.00;1.00;;;;;;;14.34;27.69;99928.31;4909881;29;20058;-85